Time;durP1;ratioP1;P1;durP2;ratioP2;P2;SDS_P1;SDS_P2;PMS_P1;PMS_P2;Temp;Humidity;BMP_temperature;BMP_pressure;BME280_temperature;BME280_humidity;BME280_pressure;Samples;Min_cycle;Max_cycle;Signal;HPM_P1;HPM_P2
2023/01/25 00:01:24;;;;;;;;;;;17.40;86.80;;;;;;5094637;28;20365;-44
2023/01/25 00:03:49;;;;;;;;;;;17.50;86.40;;;;;;5094281;28;20081;-43
2023/01/25 00:06:15;;;;;;;;;;;17.60;86.10;;;;;;5094274;28;19908;-43
2023/01/25 00:08:40;;;;;;;;;;;17.60;85.80;;;;;;5094243;28;19919;-42
2023/01/25 00:11:05;;;;;;;;;;;17.70;85.70;;;;;;5094186;28;19915;-43
2023/01/25 00:13:31;;;;;;;;;;;17.70;85.70;;;;;;5094305;28;19916;-42
2023/01/25 00:16:00;;;;;;;;;;;17.70;85.70;;;;;;5094352;28;20353;-42
2023/01/25 00:18:26;;;;;;;;;;;17.60;85.80;;;;;;5091797;28;20355;-42
2023/01/25 00:20:51;;;;;;;;;;;17.60;86.00;;;;;;5094344;28;20049;-42
2023/01/25 00:23:17;;;;;;;;;;;17.60;86.20;;;;;;5104189;28;19908;-41
2023/01/25 00:25:42;;;;;;;;;;;17.50;86.30;;;;;;5114646;28;19926;-42
2023/01/25 00:28:08;;;;;;;;;;;17.50;86.40;;;;;;5114372;28;20056;-42
2023/01/25 00:30:33;;;;;;;;;;;17.50;86.50;;;;;;5114575;28;20428;-42
2023/01/25 00:33:06;;;;;;;;;;;17.50;86.50;;;;;;5096101;28;19908;-42
2023/01/25 00:35:33;;;;;;;;;;;17.40;86.60;;;;;;5092307;28;20377;-42
2023/01/25 00:38:00;;;;;;;;;;;17.40;86.80;;;;;;5089904;28;19920;-43
2023/01/25 00:40:26;;;;;;;;;;;17.40;86.90;;;;;;5094862;28;19909;-42
2023/01/25 00:42:51;;;;;;;;;;;17.30;87.10;;;;;;5098314;28;19908;-42
2023/01/25 00:45:17;;;;;;;;;;;17.30;87.10;;;;;;5098274;28;19908;-42
2023/01/25 00:47:43;;;;;;;;;;;17.30;87.20;;;;;;5112077;28;19919;-44
2023/01/25 00:50:09;;;;;;;;;;;17.30;87.20;;;;;;5098732;28;19908;-43
2023/01/25 00:52:34;;;;;;;;;;;17.30;87.20;;;;;;5098163;28;20279;-42
2023/01/25 00:55:00;;;;;;;;;;;17.30;87.30;;;;;;5109339;28;20346;-41
2023/01/25 00:57:25;;;;;;;;;;;17.30;87.20;;;;;;5105255;28;20460;-44
2023/01/25 00:59:51;;;;;;;;;;;17.30;87.00;;;;;;5101703;28;19912;-41
2023/01/25 01:02:16;;;;;;;;;;;17.30;87.00;;;;;;5111083;28;20375;-43
2023/01/25 01:04:42;;;;;;;;;;;17.40;87.00;;;;;;5097617;28;19915;-43
2023/01/25 01:07:07;;;;;;;;;;;17.40;87.00;;;;;;5099616;28;19956;-41
2023/01/25 01:09:32;;;;;;;;;;;17.50;86.80;;;;;;5108305;28;19908;-44
2023/01/25 01:11:58;;;;;;;;;;;17.50;86.60;;;;;;5090316;28;19912;-42
2023/01/25 01:14:23;;;;;;;;;;;17.50;86.60;;;;;;5091122;28;19908;-45
2023/01/25 01:16:49;;;;;;;;;;;17.50;86.60;;;;;;5097613;28;19923;-42
2023/01/25 01:19:14;;;;;;;;;;;17.40;86.60;;;;;;5100019;28;20291;-41
2023/01/25 01:21:40;;;;;;;;;;;17.40;86.70;;;;;;5117254;28;20267;-43
2023/01/25 01:24:05;;;;;;;;;;;17.40;86.70;;;;;;5108792;28;19908;-41
2023/01/25 01:26:31;;;;;;;;;;;17.40;86.70;;;;;;5112475;28;20407;-42
2023/01/25 01:28:57;;;;;;;;;;;17.30;86.80;;;;;;5097194;28;20367;-43
2023/01/25 01:31:23;;;;;;;;;;;17.30;86.80;;;;;;5077198;28;19931;-42
2023/01/25 01:33:49;;;;;;;;;;;17.30;86.80;;;;;;5079576;28;20355;-43
2023/01/25 01:36:16;;;;;;;;;;;17.30;87.00;;;;;;5085471;28;20275;-42
2023/01/25 01:38:42;;;;;;;;;;;17.20;86.90;;;;;;5097246;28;20015;-43
2023/01/25 01:41:07;;;;;;;;;;;17.20;86.90;;;;;;5096738;28;19936;-43
2023/01/25 01:43:33;;;;;;;;;;;17.30;87.00;;;;;;5097224;28;19908;-42
2023/01/25 01:46:00;;;;;;;;;;;17.20;87.00;;;;;;5096939;28;20358;-43
2023/01/25 01:48:28;;;;;;;;;;;17.20;87.10;;;;;;5114279;28;19912;-45
2023/01/25 01:50:55;;;;;;;;;;;17.20;87.10;;;;;;5111913;28;19913;-42
2023/01/25 01:53:22;;;;;;;;;;;17.20;87.10;;;;;;5096219;28;19962;-43
2023/01/25 01:55:47;;;;;;;;;;;17.20;87.20;;;;;;5096968;28;19969;-42
2023/01/25 01:58:13;;;;;;;;;;;17.30;87.20;;;;;;5097555;28;19916;-42
2023/01/25 02:00:39;;;;;;;;;;;17.30;87.00;;;;;;5105642;28;19908;-42
2023/01/25 02:03:05;;;;;;;;;;;17.40;86.80;;;;;;5114880;28;19915;-42
2023/01/25 02:05:35;;;;;;;;;;;17.40;86.60;;;;;;5096813;28;20290;-43
2023/01/25 02:08:01;;;;;;;;;;;17.50;86.50;;;;;;5097096;28;20262;-41
2023/01/25 02:10:27;;;;;;;;;;;17.50;86.40;;;;;;5082554;28;19921;-42
2023/01/25 02:12:54;;;;;;;;;;;17.50;86.40;;;;;;5096504;28;19915;-44
2023/01/25 02:15:20;;;;;;;;;;;17.50;86.50;;;;;;5096372;28;19916;-44
2023/01/25 02:17:46;;;;;;;;;;;17.50;86.50;;;;;;5094167;28;20342;-44
2023/01/25 02:20:17;;;;;;;;;;;17.50;86.60;;;;;;5085116;28;19907;-43
2023/01/25 02:22:49;;;;;;;;;;;17.50;86.70;;;;;;5111974;28;19915;-42
2023/01/25 02:25:15;;;;;;;;;;;17.40;86.60;;;;;;5102043;28;20349;-42
2023/01/25 02:27:43;;;;;;;;;;;17.40;86.70;;;;;;5096260;28;19907;-41
2023/01/25 02:30:08;;;;;;;;;;;17.40;86.80;;;;;;5096303;28;19912;-42
2023/01/25 02:32:34;;;;;;;;;;;17.40;86.90;;;;;;5096044;28;20298;-42
2023/01/25 02:35:00;;;;;;;;;;;17.30;86.90;;;;;;5095994;28;19908;-44
2023/01/25 02:37:25;;;;;;;;;;;17.30;87.00;;;;;;5077797;28;20381;-42
2023/01/25 02:39:51;;;;;;;;;;;17.20;86.90;;;;;;5078044;28;19904;-42
2023/01/25 02:42:17;;;;;;;;;;;17.20;87.00;;;;;;5095890;28;19917;-43
2023/01/25 02:44:42;;;;;;;;;;;17.20;86.90;;;;;;5096012;28;20355;-42
2023/01/25 02:47:08;;;;;;;;;;;17.20;87.00;;;;;;5094377;28;19904;-42
2023/01/25 02:49:34;;;;;;;;;;;17.20;87.00;;;;;;5095203;28;19963;-42
2023/01/25 02:52:00;;;;;;;;;;;17.20;87.10;;;;;;5095279;28;19904;-42
2023/01/25 02:54:26;;;;;;;;;;;17.20;87.20;;;;;;5095119;28;20033;-42
2023/01/25 02:56:51;;;;;;;;;;;17.20;87.10;;;;;;5094891;28;19993;-43
2023/01/25 02:59:17;;;;;;;;;;;17.20;87.50;;;;;;5095092;28;19966;-42
2023/01/25 03:01:43;;;;;;;;;;;17.30;86.90;;;;;;5095734;28;19912;-44
2023/01/25 03:04:09;;;;;;;;;;;17.30;86.80;;;;;;5094643;28;19904;-41
2023/01/25 03:06:34;;;;;;;;;;;17.30;86.70;;;;;;5095424;28;19914;-42
2023/01/25 03:09:00;;;;;;;;;;;17.30;86.70;;;;;;5095650;28;19908;-41
2023/01/25 03:11:26;;;;;;;;;;;17.30;86.70;;;;;;5095241;28;19957;-42
2023/01/25 03:13:51;;;;;;;;;;;17.30;86.70;;;;;;5095556;28;19993;-42
2023/01/25 03:16:17;;;;;;;;;;;17.30;86.80;;;;;;5095575;28;19961;-42
2023/01/25 03:18:42;;;;;;;;;;;17.20;86.90;;;;;;5095456;28;19904;-42
2023/01/25 03:21:11;;;;;;;;;;;17.20;87.00;;;;;;5077263;28;20341;-44
2023/01/25 03:23:37;;;;;;;;;;;17.20;87.10;;;;;;5095359;28;19999;-43
2023/01/25 03:26:06;;;;;;;;;;;17.20;87.20;;;;;;5095310;28;19957;-41
2023/01/25 03:28:32;;;;;;;;;;;17.10;87.20;;;;;;5095200;28;19904;-43
2023/01/25 03:30:57;;;;;;;;;;;17.10;87.20;;;;;;5095214;28;19911;-42
2023/01/25 03:33:23;;;;;;;;;;;17.10;87.20;;;;;;5095466;28;19904;-43
2023/01/25 03:35:52;;;;;;;;;;;17.10;87.20;;;;;;5094795;28;19919;-43
2023/01/25 03:38:19;;;;;;;;;;;17.10;87.30;;;;;;5095421;28;19916;-43
2023/01/25 03:40:45;;;;;;;;;;;17.10;87.40;;;;;;5095159;28;19947;-42
2023/01/25 03:43:11;;;;;;;;;;;17.00;87.30;;;;;;5094764;28;20435;-42
2023/01/25 03:45:36;;;;;;;;;;;17.00;87.30;;;;;;5094687;28;19950;-43
2023/01/25 03:48:01;;;;;;;;;;;17.00;87.30;;;;;;5094629;28;19927;-43
2023/01/25 03:50:27;;;;;;;;;;;17.10;87.30;;;;;;5094887;28;19904;-43
2023/01/25 03:53:01;;;;;;;;;;;17.10;87.20;;;;;;5094451;28;20376;-41
2023/01/25 03:55:26;;;;;;;;;;;17.20;87.10;;;;;;5094394;28;20358;-42
2023/01/25 03:57:52;;;;;;;;;;;17.30;86.80;;;;;;5094786;28;19904;-43
2023/01/25 04:00:18;;;;;;;;;;;17.50;86.50;;;;;;5094455;28;20061;-43
2023/01/25 04:02:44;;;;;;;;;;;17.60;86.30;;;;;;5094742;28;19904;-42
2023/01/25 04:05:10;;;;;;;;;;;17.60;86.10;;;;;;5094595;28;19939;-43
2023/01/25 04:07:36;;;;;;;;;;;17.60;86.10;;;;;;5094576;28;20385;-46
2023/01/25 04:10:02;;;;;;;;;;;17.60;86.10;;;;;;5094155;28;19904;-43
2023/01/25 04:12:27;;;;;;;;;;;17.60;86.10;;;;;;5094167;28;20261;-42
2023/01/25 04:14:53;;;;;;;;;;;17.60;86.30;;;;;;5094266;28;19904;-42
2023/01/25 04:17:18;;;;;;;;;;;17.60;86.50;;;;;;5094224;28;19960;-45
2023/01/25 04:19:44;;;;;;;;;;;17.50;86.70;;;;;;5094524;28;20232;-42
2023/01/25 04:22:09;;;;;;;;;;;17.50;86.60;;;;;;5094354;28;19970;-42
2023/01/25 04:24:35;;;;;;;;;;;17.50;86.70;;;;;;5094052;28;19957;-42
2023/01/25 04:27:00;;;;;;;;;;;17.40;86.70;;;;;;5094041;28;19961;-42
2023/01/25 04:29:26;;;;;;;;;;;17.40;86.90;;;;;;5094026;28;19904;-42
2023/01/25 04:31:51;;;;;;;;;;;17.30;86.90;;;;;;5093849;28;20320;-43
2023/01/25 04:34:17;;;;;;;;;;;17.30;87.00;;;;;;5093854;28;19911;-42
2023/01/25 04:36:42;;;;;;;;;;;17.30;87.00;;;;;;5093954;28;20008;-44
2023/01/25 04:39:09;;;;;;;;;;;17.20;87.00;;;;;;5093223;28;21455;-43
2023/01/25 04:41:35;;;;;;;;;;;17.20;87.10;;;;;;5093938;28;19943;-42
2023/01/25 04:44:00;;;;;;;;;;;17.20;87.20;;;;;;5093846;28;19908;-41
2023/01/25 04:46:26;;;;;;;;;;;17.20;87.20;;;;;;5075824;28;19905;-41
2023/01/25 04:48:51;;;;;;;;;;;17.10;87.20;;;;;;5093690;28;19955;-42
2023/01/25 04:51:17;;;;;;;;;;;17.10;87.20;;;;;;5093996;28;19908;-41
2023/01/25 04:53:42;;;;;;;;;;;17.20;87.20;;;;;;5093983;28;19999;-41
2023/01/25 04:56:08;;;;;;;;;;;17.10;87.10;;;;;;5093821;28;19908;-42
2023/01/25 04:58:33;;;;;;;;;;;17.10;87.10;;;;;;5094063;28;19908;-41
2023/01/25 05:01:00;;;;;;;;;;;17.10;87.00;;;;;;5093977;28;19952;-45
2023/01/25 05:03:25;;;;;;;;;;;17.10;87.00;;;;;;5093993;28;19949;-43
2023/01/25 05:05:51;;;;;;;;;;;17.20;86.90;;;;;;5094103;28;19979;-42
2023/01/25 05:08:16;;;;;;;;;;;17.20;86.80;;;;;;5093624;28;19905;-42
2023/01/25 05:10:42;;;;;;;;;;;17.20;86.70;;;;;;5093927;28;20022;-42
2023/01/25 05:13:07;;;;;;;;;;;17.30;86.70;;;;;;5093782;28;19904;-42
2023/01/25 05:15:33;;;;;;;;;;;17.30;86.70;;;;;;5093886;28;19908;-44
2023/01/25 05:17:58;;;;;;;;;;;17.30;86.80;;;;;;5093516;28;19912;-42
2023/01/25 05:20:24;;;;;;;;;;;17.30;86.80;;;;;;5093638;28;19904;-41
2023/01/25 05:22:49;;;;;;;;;;;17.30;86.80;;;;;;5093373;28;19986;-43
2023/01/25 05:27:59;;;;;;;;;;;17.30;86.90;;;;;;5094979;28;19910;-41
2023/01/25 05:30:24;;;;;;;;;;;17.20;86.90;;;;;;5097083;28;20003;-42
2023/01/25 05:32:50;;;;;;;;;;;17.20;86.90;;;;;;5097561;28;19908;-41
2023/01/25 05:35:15;;;;;;;;;;;17.20;87.00;;;;;;5097274;28;19904;-43
2023/01/25 05:37:41;;;;;;;;;;;17.20;87.10;;;;;;5097296;28;19916;-42
2023/01/25 05:40:07;;;;;;;;;;;17.10;87.20;;;;;;5097579;28;20149;-44
2023/01/25 05:42:32;;;;;;;;;;;17.10;87.30;;;;;;5097108;28;19904;-42
2023/01/25 05:44:58;;;;;;;;;;;17.10;87.30;;;;;;5096939;28;20308;-42
2023/01/25 05:47:23;;;;;;;;;;;17.10;87.30;;;;;;5097191;28;19911;-42
2023/01/25 05:49:49;;;;;;;;;;;17.00;87.30;;;;;;5097185;28;20356;-42
2023/01/25 05:52:15;;;;;;;;;;;17.10;87.30;;;;;;5096745;28;19926;-41
2023/01/25 05:54:40;;;;;;;;;;;17.00;87.30;;;;;;5096553;28;20365;-42
2023/01/25 05:57:05;;;;;;;;;;;17.10;87.20;;;;;;5096744;28;20250;-43
2023/01/25 05:59:31;;;;;;;;;;;17.10;87.10;;;;;;5096921;28;19904;-43
2023/01/25 06:01:56;;;;;;;;;;;17.20;86.90;;;;;;5096942;28;19911;-42
2023/01/25 06:04:22;;;;;;;;;;;17.30;86.80;;;;;;5096887;28;20006;-41
2023/01/25 06:06:47;;;;;;;;;;;17.30;86.60;;;;;;5097079;28;20304;-43
2023/01/25 06:09:13;;;;;;;;;;;17.40;86.50;;;;;;5096423;28;20411;-42
2023/01/25 06:11:38;;;;;;;;;;;17.40;86.50;;;;;;5096539;28;20389;-42
2023/01/25 06:14:04;;;;;;;;;;;17.40;86.50;;;;;;5078344;28;19904;-43
2023/01/25 06:16:29;;;;;;;;;;;17.30;86.50;;;;;;5096482;28;19919;-42
2023/01/25 06:18:55;;;;;;;;;;;17.30;86.60;;;;;;5095938;28;20262;-43
2023/01/25 06:21:20;;;;;;;;;;;17.30;86.70;;;;;;5096253;28;19908;-43
2023/01/25 06:23:46;;;;;;;;;;;17.20;86.70;;;;;;5096194;28;19904;-43
2023/01/25 06:26:12;;;;;;;;;;;17.20;86.90;;;;;;5096138;28;19954;-41
2023/01/25 06:28:38;;;;;;;;;;;17.20;86.90;;;;;;5096538;28;19904;-45
2023/01/25 06:31:07;;;;;;;;;;;17.10;87.00;;;;;;5096188;28;19914;-42
2023/01/25 06:33:33;;;;;;;;;;;17.10;87.10;;;;;;5096119;28;19927;-42
2023/01/25 06:36:03;;;;;;;;;;;17.10;87.20;;;;;;5095830;28;19912;-42
2023/01/25 06:38:28;;;;;;;;;;;17.10;87.40;;;;;;5095614;28;19916;-41
2023/01/25 06:40:57;;;;;;;;;;;17.10;87.50;;;;;;5095546;28;19911;-43
2023/01/25 06:43:22;;;;;;;;;;;17.10;87.60;;;;;;5076165;28;20006;-42
2023/01/25 06:45:48;;;;;;;;;;;17.10;87.70;;;;;;5087739;28;20078;-42
2023/01/25 06:48:13;;;;;;;;;;;17.10;87.70;;;;;;5095444;28;19961;-40
2023/01/25 06:50:39;;;;;;;;;;;17.10;87.70;;;;;;5095607;28;19908;-42
2023/01/25 06:53:04;;;;;;;;;;;17.20;87.60;;;;;;5097385;28;19911;-40
2023/01/25 06:55:30;;;;;;;;;;;17.20;87.50;;;;;;5090481;28;19972;-41
2023/01/25 06:57:58;;;;;;;;;;;17.30;87.30;;;;;;5105210;28;19912;-41
2023/01/25 07:00:24;;;;;;;;;;;17.30;87.00;;;;;;5106670;28;20412;-43
2023/01/25 07:02:49;;;;;;;;;;;17.40;86.90;;;;;;5103591;28;19912;-41
2023/01/25 07:05:15;;;;;;;;;;;17.40;86.80;;;;;;5097459;28;20022;-42
2023/01/25 07:07:43;;;;;;;;;;;17.40;86.30;;;;;;5098244;28;19916;-42
2023/01/25 07:10:09;;;;;;;;;;;17.40;86.80;;;;;;5105015;28;19920;-42
2023/01/25 07:12:34;;;;;;;;;;;17.40;86.70;;;;;;5091589;28;19912;-42
2023/01/25 07:15:00;;;;;;;;;;;17.30;86.50;;;;;;5094821;28;19912;-41
2023/01/25 07:17:25;;;;;;;;;;;17.30;86.50;;;;;;5094956;28;20295;-45
2023/01/25 07:19:51;;;;;;;;;;;17.30;87.30;;;;;;5094616;28;19935;-44
2023/01/25 07:22:16;;;;;;;;;;;17.30;87.00;;;;;;5109376;28;19912;-43
2023/01/25 07:24:48;;;;;;;;;;;17.30;87.60;;;;;;5109991;28;19917;-43
2023/01/25 07:27:14;;;;;;;;;;;17.30;87.30;;;;;;5093410;28;19914;-42
2023/01/25 07:29:40;;;;;;;;;;;17.20;87.30;;;;;;5094577;28;20281;-47
2023/01/25 07:32:05;;;;;;;;;;;17.20;87.20;;;;;;5081368;28;19912;-44
2023/01/25 07:34:31;;;;;;;;;;;17.00;83.50;;;;;;5115071;28;19915;-43
2023/01/25 07:36:56;;;;;;;;;;;17.00;86.80;;;;;;5114842;28;19920;-43
2023/01/25 07:39:22;;;;;;;;;;;17.00;87.20;;;;;;5096579;28;19915;-42
2023/01/25 07:41:47;;;;;;;;;;;17.00;87.30;;;;;;5114699;28;19907;-41
2023/01/25 07:44:13;;;;;;;;;;;17.00;87.30;;;;;;5115168;28;19915;-43
2023/01/25 07:46:38;;;;;;;;;;;17.00;87.20;;;;;;5096785;28;20384;-42
2023/01/25 07:49:03;;;;;;;;;;;17.10;87.20;;;;;;5114996;28;19951;-43
2023/01/25 07:51:29;;;;;;;;;;;17.10;87.10;;;;;;5114289;28;20003;-42
2023/01/25 07:53:56;;;;;;;;;;;17.10;87.00;;;;;;5114601;28;20319;-43
2023/01/25 07:56:23;;;;;;;;;;;17.10;86.90;;;;;;5114662;28;20348;-44
2023/01/25 07:58:50;;;;;;;;;;;17.10;86.90;;;;;;5114586;28;19912;-44
2023/01/25 08:01:16;;;;;;;;;;;17.10;86.80;;;;;;5114846;28;19930;-43
2023/01/25 08:03:42;;;;;;;;;;;17.10;86.80;;;;;;5114437;28;19907;-43
2023/01/25 08:06:09;;;;;;;;;;;17.10;86.80;;;;;;5115052;28;19968;-43
2023/01/25 08:08:46;;;;;;;;;;;17.10;86.90;;;;;;5096724;28;20324;-43
2023/01/25 08:11:12;;;;;;;;;;;17.10;87.00;;;;;;5114673;28;20273;-46
2023/01/25 08:13:37;;;;;;;;;;;17.10;87.00;;;;;;5114216;28;19950;-43
2023/01/25 08:16:04;;;;;;;;;;;17.10;87.10;;;;;;5114469;28;19955;-44
2023/01/25 08:18:29;;;;;;;;;;;17.00;87.10;;;;;;5114738;28;19911;-45
2023/01/25 08:20:58;;;;;;;;;;;17.00;87.10;;;;;;5114183;28;19911;-43
2023/01/25 08:23:24;;;;;;;;;;;17.00;87.10;;;;;;5114249;28;19907;-42
2023/01/25 08:25:49;;;;;;;;;;;17.00;87.10;;;;;;5114191;28;19953;-42
2023/01/25 08:28:15;;;;;;;;;;;17.00;87.10;;;;;;5114400;28;19908;-41
2023/01/25 08:30:40;;;;;;;;;;;17.00;87.00;;;;;;5114567;28;19923;-42
2023/01/25 08:33:06;;;;;;;;;;;17.00;87.00;;;;;;5114225;28;19908;-42
2023/01/25 08:35:31;;;;;;;;;;;17.00;86.90;;;;;;5114003;28;19940;-43
2023/01/25 08:37:57;;;;;;;;;;;17.10;86.70;;;;;;5114092;28;19976;-44
2023/01/25 08:40:22;;;;;;;;;;;17.20;86.40;;;;;;5114087;28;19916;-44
2023/01/25 08:42:48;;;;;;;;;;;17.30;85.90;;;;;;5114267;28;20350;-43
2023/01/25 08:45:13;;;;;;;;;;;17.40;85.70;;;;;;5113904;28;19908;-44
2023/01/25 08:47:39;;;;;;;;;;;17.40;85.60;;;;;;5114060;28;20351;-42
2023/01/25 08:50:05;;;;;;;;;;;17.50;85.60;;;;;;5113853;28;19915;-43
2023/01/25 08:52:30;;;;;;;;;;;17.40;85.60;;;;;;5113790;28;19955;-44
2023/01/25 08:54:56;;;;;;;;;;;17.40;85.60;;;;;;5114129;28;20016;-42
2023/01/25 08:57:21;;;;;;;;;;;17.40;85.60;;;;;;5113847;28;19925;-42
2023/01/25 08:59:47;;;;;;;;;;;17.30;85.70;;;;;;5113758;28;19915;-42
2023/01/25 09:02:12;;;;;;;;;;;17.30;85.80;;;;;;5114080;28;19961;-43
2023/01/25 09:04:38;;;;;;;;;;;17.30;86.00;;;;;;5117827;28;19912;-43
2023/01/25 09:07:03;;;;;;;;;;;17.20;86.00;;;;;;5117674;28;19962;-42
2023/01/25 09:09:29;;;;;;;;;;;17.20;86.20;;;;;;5118084;28;20338;-42
2023/01/25 09:11:55;;;;;;;;;;;17.20;86.30;;;;;;5118091;28;20003;-46
2023/01/25 09:14:20;;;;;;;;;;;17.10;86.30;;;;;;5118044;28;20023;-42
2023/01/25 09:16:46;;;;;;;;;;;17.10;86.40;;;;;;5117972;28;19916;-42
2023/01/25 09:19:12;;;;;;;;;;;17.10;86.50;;;;;;5117941;28;20006;-44
2023/01/25 09:21:37;;;;;;;;;;;17.00;86.50;;;;;;5117879;28;20378;-43
2023/01/25 09:24:03;;;;;;;;;;;17.00;86.60;;;;;;5117772;28;20369;-43
2023/01/25 09:26:29;;;;;;;;;;;17.00;86.70;;;;;;5118127;28;19911;-46
2023/01/25 09:28:54;;;;;;;;;;;17.00;86.70;;;;;;5117697;28;19912;-43
2023/01/25 09:31:20;;;;;;;;;;;17.00;86.70;;;;;;5117599;28;20419;-42
2023/01/25 09:33:46;;;;;;;;;;;17.00;86.70;;;;;;5117361;28;20023;-43
2023/01/25 09:36:11;;;;;;;;;;;17.00;86.60;;;;;;5117495;28;20274;-42
2023/01/25 09:38:37;;;;;;;;;;;17.00;86.50;;;;;;5117771;28;19965;-43
2023/01/25 09:41:08;;;;;;;;;;;17.00;86.40;;;;;;5117358;28;20370;-43
2023/01/25 09:43:52;;;;;;;;;;;17.00;86.30;;;;;;5117389;28;19908;-42
2023/01/25 09:46:23;;;;;;;;;;;17.10;86.20;;;;;;5117282;28;19915;-42
2023/01/25 09:49:14;;;;;;;;;;;17.10;86.20;;;;;;5117712;28;19914;-44
2023/01/25 09:52:00;;;;;;;;;;;17.10;86.20;;;;;;5077959;28;19950;-45
2023/01/25 09:54:27;;;;;;;;;;;17.10;86.10;;;;;;5117046;28;20011;-43
2023/01/25 09:56:53;;;;;;;;;;;17.10;86.10;;;;;;5116770;28;19916;-42
2023/01/25 09:59:21;;;;;;;;;;;17.10;86.20;;;;;;5116854;28;19968;-42
2023/01/25 10:01:49;;;;;;;;;;;17.10;86.20;;;;;;5117002;28;20006;-42
2023/01/25 10:04:17;;;;;;;;;;;17.10;86.30;;;;;;5116809;28;20324;-43
2023/01/25 10:06:46;;;;;;;;;;;17.10;86.30;;;;;;5098715;28;19908;-42
2023/01/25 10:09:16;;;;;;;;;;;17.00;86.30;;;;;;5116832;28;19961;-43
2023/01/25 10:11:41;;;;;;;;;;;17.00;86.40;;;;;;5116911;28;19912;-42
2023/01/25 10:14:12;;;;;;;;;;;17.00;86.50;;;;;;5115931;28;20006;-43
2023/01/25 10:16:42;;;;;;;;;;;17.00;86.50;;;;;;5115914;28;20003;-45
2023/01/25 10:19:27;;;;;;;;;;;16.90;86.50;;;;;;5116157;28;19908;-43
2023/01/25 10:21:54;;;;;;;;;;;16.90;86.60;;;;;;5116363;28;19947;-45
2023/01/25 10:24:25;;;;;;;;;;;16.90;86.60;;;;;;5116485;28;20356;-42
2023/01/25 10:26:54;;;;;;;;;;;16.90;86.60;;;;;;5116511;28;19918;-42
2023/01/25 10:29:21;;;;;;;;;;;16.90;86.60;;;;;;5116371;28;20011;-43
2023/01/25 10:31:49;;;;;;;;;;;16.90;86.70;;;;;;5098374;28;20322;-44
2023/01/25 10:34:23;;;;;;;;;;;16.90;86.70;;;;;;5116633;28;20002;-42
2023/01/25 10:36:53;;;;;;;;;;;16.90;86.50;;;;;;5116048;28;19962;-42
2023/01/25 10:39:18;;;;;;;;;;;17.10;86.40;;;;;;5115937;28;20346;-42
2023/01/25 10:41:47;;;;;;;;;;;17.20;85.90;;;;;;5115872;28;20014;-41
2023/01/25 10:44:25;;;;;;;;;;;17.40;85.50;;;;;;5116352;28;19908;-42
2023/01/25 10:47:03;;;;;;;;;;;17.50;85.00;;;;;;5116357;28;19924;-44
2023/01/25 10:49:28;;;;;;;;;;;17.50;84.70;;;;;;5116002;28;19907;-42
2023/01/25 10:51:55;;;;;;;;;;;17.50;84.70;;;;;;5116053;28;20351;-45
2023/01/25 10:54:21;;;;;;;;;;;17.50;84.70;;;;;;5115688;28;19908;-42
2023/01/25 10:56:47;;;;;;;;;;;17.50;84.70;;;;;;5115489;28;20014;-42
2023/01/25 10:59:25;;;;;;;;;;;17.40;84.80;;;;;;5115849;28;19912;-44
2023/01/25 11:01:51;;;;;;;;;;;17.30;85.00;;;;;;5115973;28;20342;-44
2023/01/25 11:04:23;;;;;;;;;;;17.30;85.10;;;;;;5115419;28;19914;-44
2023/01/25 11:06:50;;;;;;;;;;;17.30;85.30;;;;;;5115719;28;19907;-43
2023/01/25 11:09:21;;;;;;;;;;;17.20;85.40;;;;;;5097344;28;19914;-42
2023/01/25 11:12:07;;;;;;;;;;;17.20;85.50;;;;;;5115566;28;19907;-43
2023/01/25 11:14:33;;;;;;;;;;;17.10;85.60;;;;;;5097646;28;19914;-44
2023/01/25 11:17:00;;;;;;;;;;;17.10;85.70;;;;;;5115258;28;20014;-43
2023/01/25 11:19:35;;;;;;;;;;;17.10;85.80;;;;;;5115296;28;19924;-42
2023/01/25 11:22:03;;;;;;;;;;;17.00;85.90;;;;;;5115153;28;19937;-43
2023/01/25 11:24:33;;;;;;;;;;;17.10;86.00;;;;;;5096698;28;19950;-42
2023/01/25 11:27:12;;;;;;;;;;;17.00;86.00;;;;;;5114314;28;19912;-43
2023/01/25 11:29:38;;;;;;;;;;;17.00;86.10;;;;;;5115219;28;19974;-42
2023/01/25 11:32:13;;;;;;;;;;;17.00;86.20;;;;;;5097152;28;20273;-42
2023/01/25 11:34:38;;;;;;;;;;;17.00;86.20;;;;;;5115291;28;19992;-42
2023/01/25 11:37:09;;;;;;;;;;;17.00;86.10;;;;;;5114567;28;20022;-41
2023/01/25 11:39:48;;;;;;;;;;;17.00;86.10;;;;;;5115064;28;19908;-42
2023/01/25 11:42:22;;;;;;;;;;;17.00;86.00;;;;;;5114786;28;19908;-42
2023/01/25 11:44:48;;;;;;;;;;;17.10;85.70;;;;;;5114972;28;19908;-42
2023/01/25 11:47:22;;;;;;;;;;;17.20;85.50;;;;;;5114663;28;19952;-41
2023/01/25 11:49:54;;;;;;;;;;;17.30;85.30;;;;;;5114559;28;19950;-43
2023/01/25 11:52:23;;;;;;;;;;;17.30;85.20;;;;;;5114426;28;19908;-43
2023/01/25 11:54:56;;;;;;;;;;;17.30;85.10;;;;;;5114635;28;19908;-45
2023/01/25 11:57:44;;;;;;;;;;;17.30;85.10;;;;;;5114723;28;19915;-45
2023/01/25 12:00:16;;;;;;;;;;;17.20;85.10;;;;;;5066932;28;20377;-42
2023/01/25 12:02:49;;;;;;;;;;;17.20;85.20;;;;;;5114497;28;19915;-44
2023/01/25 12:05:17;;;;;;;;;;;17.20;85.30;;;;;;5115046;28;19933;-43
2023/01/25 12:08:02;;;;;;;;;;;17.10;85.30;;;;;;5114562;28;19911;-42
2023/01/25 12:10:30;;;;;;;;;;;17.10;85.40;;;;;;5114392;28;19930;-44
2023/01/25 12:13:02;;;;;;;;;;;17.00;85.60;;;;;;5114558;28;20034;-43
2023/01/25 12:15:45;;;;;;;;;;;17.00;85.60;;;;;;5114561;28;19947;-44
2023/01/25 12:18:19;;;;;;;;;;;16.90;85.70;;;;;;5114418;28;20362;-43
2023/01/25 12:21:00;;;;;;;;;;;16.90;85.80;;;;;;5114377;28;19907;-42
2023/01/25 12:23:25;;;;;;;;;;;16.90;85.80;;;;;;5114338;28;19912;-42
2023/01/25 12:25:53;;;;;;;;;;;16.90;86.00;;;;;;5114012;28;19912;-45
2023/01/25 12:28:21;;;;;;;;;;;16.80;86.00;;;;;;5113913;28;19951;-44
2023/01/25 12:30:52;;;;;;;;;;;16.80;86.00;;;;;;5114294;28;19915;-42
2023/01/25 12:33:41;;;;;;;;;;;16.90;86.10;;;;;;5114211;28;19952;-43
2023/01/25 12:36:16;;;;;;;;;;;16.90;86.00;;;;;;5100017;28;20323;-42
2023/01/25 12:39:19;;;;;;;;;;;16.90;85.90;;;;;;5114268;28;19924;-42
2023/01/25 12:41:49;;;;;;;;;;;17.00;85.90;;;;;;5011524;28;19910;-43
2023/01/25 12:44:20;;;;;;;;;;;17.00;85.80;;;;;;5011508;28;19916;-43
2023/01/25 12:46:45;;;;;;;;;;;17.00;85.60;;;;;;5065405;28;19927;-43
2023/01/25 12:49:24;;;;;;;;;;;17.00;85.50;;;;;;5114053;28;19908;-45
2023/01/25 12:51:50;;;;;;;;;;;17.00;85.50;;;;;;5114190;28;19917;-45
2023/01/25 12:54:19;;;;;;;;;;;17.00;85.70;;;;;;5113766;28;20296;-42
2023/01/25 12:56:53;;;;;;;;;;;17.00;85.60;;;;;;5113641;28;20022;-44
2023/01/25 12:59:24;;;;;;;;;;;17.00;85.60;;;;;;5114231;28;19965;-43
2023/01/25 13:01:53;;;;;;;;;;;17.00;85.60;;;;;;5113748;28;19908;-46
2023/01/25 13:04:21;;;;;;;;;;;17.00;85.60;;;;;;5114009;28;20010;-45
2023/01/25 13:06:53;;;;;;;;;;;16.90;85.60;;;;;;5113947;28;19908;-42
2023/01/25 13:09:29;;;;;;;;;;;17.00;85.70;;;;;;5114024;28;19908;-43
2023/01/25 13:11:54;;;;;;;;;;;16.90;85.60;;;;;;5113497;28;20389;-45
2023/01/25 13:14:36;;;;;;;;;;;16.90;86.20;;;;;;5113430;28;19947;-43
2023/01/25 13:17:18;;;;;;;;;;;16.90;85.70;;;;;;5113953;28;19955;-43
2023/01/25 13:19:44;;;;;;;;;;;16.90;85.70;;;;;;5113784;28;19908;-45
2023/01/25 13:22:11;;;;;;;;;;;16.90;85.70;;;;;;5113595;28;19907;-45
2023/01/25 13:24:55;;;;;;;;;;;16.90;85.60;;;;;;5113885;28;19908;-43
2023/01/25 13:27:24;;;;;;;;;;;16.90;85.60;;;;;;5113575;28;19907;-42
2023/01/25 13:29:54;;;;;;;;;;;16.90;85.70;;;;;;5113876;28;19998;-44
2023/01/25 13:32:31;;;;;;;;;;;16.90;85.70;;;;;;5113750;28;20000;-43
2023/01/25 13:34:57;;;;;;;;;;;16.90;85.70;;;;;;5113666;28;19908;-46
2023/01/25 13:37:30;;;;;;;;;;;16.90;85.70;;;;;;5113361;28;20018;-44
2023/01/25 13:39:57;;;;;;;;;;;16.80;85.80;;;;;;5113705;28;19915;-44
2023/01/25 13:42:24;;;;;;;;;;;16.80;85.80;;;;;;5095480;28;19930;-43
2023/01/25 13:44:52;;;;;;;;;;;16.80;85.80;;;;;;5113246;28;20375;-43
2023/01/25 13:47:36;;;;;;;;;;;16.80;85.80;;;;;;5113275;28;19908;-44
2023/01/25 13:50:08;;;;;;;;;;;16.80;85.90;;;;;;5116989;28;19908;-44
2023/01/25 13:52:34;;;;;;;;;;;16.80;85.80;;;;;;5117412;28;19914;-44
2023/01/25 13:54:59;;;;;;;;;;;16.90;85.70;;;;;;5117242;28;19911;-44
2023/01/25 13:57:26;;;;;;;;;;;16.90;85.50;;;;;;5116731;28;20051;-42
2023/01/25 14:00:03;;;;;;;;;;;17.00;85.30;;;;;;5116660;28;19911;-43
2023/01/25 14:02:29;;;;;;;;;;;17.10;85.10;;;;;;5098901;28;20304;-45
2023/01/25 14:04:55;;;;;;;;;;;17.20;84.90;;;;;;5116496;28;19953;-45
2023/01/25 14:07:23;;;;;;;;;;;17.20;84.90;;;;;;5098546;28;19912;-43
2023/01/25 14:09:49;;;;;;;;;;;17.10;84.80;;;;;;5116553;28;20274;-43
2023/01/25 14:12:34;;;;;;;;;;;17.10;84.80;;;;;;5116980;28;19915;-42
2023/01/25 14:15:15;;;;;;;;;;;17.10;84.80;;;;;;5116064;28;19914;-43
2023/01/25 14:17:40;;;;;;;;;;;17.10;85.00;;;;;;5116476;28;19924;-42
2023/01/25 14:20:16;;;;;;;;;;;17.00;85.00;;;;;;5116954;28;19916;-43
2023/01/25 14:22:45;;;;;;;;;;;17.00;85.10;;;;;;5116613;28;20012;-42